Terminal Aerodrome Forecast
Issued by NWS Hastings, NE

Home | Current Version | Previous Version | Text Only | Print | Product List | Glossary On
Versions: 1 2 3 4 5 6 7 8 9 10 11 12
000
FTUS43 KGID 090524
TAFGRI
TAF
KGRI 090524Z 0906/1006 VRB06KT P6SM SKC
     FM091400 14007KT P6SM BKN120
     FM091700 16011KT P6SM BKN080
     FM100000 16006KT P6SM SCT020 BKN040
     FM100100 15006KT P6SM SCT020 BKN030=

USA.gov is the U.S. government's official web portal to all federal, state and local government web resources and services.